KFFC

Atlanta Regional Falcon Field Airport

Atlanta, Georgia, USA
METAR KFFC 181953Z AUTO 00000KT 10SM FEW017 FEW023 OVC043 16/10 A3007 RMK AO2 SLP183 T01560100
Observed Flight Rules
Jan-18 @ 19:53 UTC (14 minutes ago) Visual Flight Rules
Visibility Clouds
10 miles
  • Few at 1,700' AGL
  • Few at 2,300' AGL
  • Overcast at 4,300' AGL
Temperatures Readings
Current 16°C / 61°F
Dewpoint 10°C / 50°F
Humidity 68%
Altimeter 30.07" Hg
Pressure 1018.3 hPa
Elevation 262
METAR KFFC 181953Z AUTO 00000KT 10SM FEW017 FEW023 OVC043 16/10 A3007 RMK AO2 SLP183 T01560100
Observed Flight Rules
Jan-18 @ 19:53 UTC
(14 minutes ago)
VFR
Clouds
  • Few at 1,700' AGL
  • Few at 2,300' AGL
  • Overcast at 4,300' AGL
Temperature Dewpoint
16°C / 61°F 10°C / 50°F
Humidity Altimeter Pressure
68% 30.07" Hg 1018.3 hPa